aerodrome LA FERTE GAUCHER, LFFG, pilots, aviation, flying | pilotspace.eu

LA FERTE GAUCHER

aerodrome LA FERTE GAUCHER

ICAO/ID: LFFG
France
web: Réservé au parachutisme et aux avions de servitude
show on the map

LFPM 220600Z AUTO 34004KT //// // NSC 09/09 Q1024

TAF LFPG 220500Z 2206/2312 36008KT 5000 NSW NSC PROB30 2206/2207 4000 BR BECMG 2207/2209 CAVOK PROB40 TEMPO 2211/2218 SCT040 BECMG 2300/2302 03008KT PROB30 2305/2307 4000 BR TX18/2215Z TN08/2306Z

general information

altitude: 538 ft
latitude: 48 45 21 N
longitude: 003 16 36 E

traffic information

RWY: 05/23: 3,609 ft (1,100 m) — surface unknown
report copyright

Online pilot logbook: free for each registered member! http://www.pilotlogbook.eu


last flights

RECENTLY ADDED

CIAF 2014

CIAF 2014

07/09/2014 (14x)

Jenki

Virus start na bramkę

Virus start na bramkę ...

04/09/2014 (3x)

oslkj

The Arrow

The Arrow

15/08/2014 (28x)

lukin

STYLUS X3

STYLUS X3 "Beauty"

01/08/2014 (8x)

Jenki

Poprad

Poprad

31/07/2014 (32x)

Jenki

Let.příručka ALTO

09/03/2014 (14x)

Roman Máca

Let.příručka ALTO

09/03/2014 (4x)

Roman Máca

ULRBK

08/02/2014 (16x)

northwolf